Time;durP1;ratioP1;P1;durP2;ratioP2;P2;SDS_P1;SDS_P2;PMS_P1;PMS_P2;Temp;Humidity;BMP_temperature;BMP_pressure;BME280_temperature;BME280_humidity;BME280_pressure;Samples;Min_cycle;Max_cycle;Signal;HPM_P1;HPM_P2
2021/03/22 00:00:07;;;;;;;11.85;5.15;;;;;;;4.79;37.06;101387.16;4947006;28;98735;-72
2021/03/22 00:02:36;;;;;;;15.95;5.00;;;;;;;4.73;37.15;101389.44;4993422;28;97351;-72
2021/03/22 00:05:03;;;;;;;17.45;4.63;;;;;;;4.65;37.32;101390.75;4992765;28;97208;-72
2021/03/22 00:07:30;;;;;;;20.93;7.17;;;;;;;4.68;37.44;101394.44;4968824;28;99310;-72
2021/03/22 00:09:57;;;;;;;14.73;5.22;;;;;;;4.70;37.24;101390.16;4967656;28;97942;-72
2021/03/22 00:12:24;;;;;;;17.73;5.40;;;;;;;4.72;37.19;101385.88;4972992;28;97888;-72
2021/03/22 00:14:51;;;;;;;13.75;4.72;;;;;;;4.68;37.30;101389.19;4969883;28;96921;-72
2021/03/22 00:17:18;;;;;;;25.00;6.70;;;;;;;4.72;37.28;101387.59;5001597;28;98412;-72
2021/03/22 00:19:46;;;;;;;14.18;5.30;;;;;;;4.70;37.24;101394.56;4973557;28;98218;-72
2021/03/22 00:22:13;;;;;;;17.63;5.10;;;;;;;4.64;37.45;101397.75;4966149;28;96826;-72
2021/03/22 00:24:40;;;;;;;17.58;4.65;;;;;;;4.60;37.24;101398.41;4968060;28;96907;-72
2021/03/22 00:27:08;;;;;;;9.13;4.57;;;;;;;4.57;37.32;101392.94;4955732;28;98831;-72
2021/03/22 00:29:35;;;;;;;13.73;5.15;;;;;;;4.60;37.32;101392.22;4967986;28;99468;-72
2021/03/22 00:32:02;;;;;;;17.60;5.05;;;;;;;4.65;37.18;101396.00;4979320;28;96910;-72
2021/03/22 00:34:29;;;;;;;12.98;4.70;;;;;;;4.67;37.24;101399.63;4970578;28;96908;-72
2021/03/22 00:36:57;;;;;;;23.15;5.22;;;;;;;4.61;37.23;101397.56;5000647;27;96994;-72
2021/03/22 00:39:24;;;;;;;15.93;5.60;;;;;;;4.64;37.13;101404.75;4967730;28;96877;-71
2021/03/22 00:41:51;;;;;;;9.70;4.30;;;;;;;4.61;36.92;101410.75;4969809;28;96894;-72
2021/03/22 00:44:18;;;;;;;14.70;4.78;;;;;;;4.61;37.07;101399.31;4971580;28;97242;-72
2021/03/22 00:46:45;;;;;;;11.45;5.55;;;;;;;4.61;37.30;101404.59;4968194;28;96774;-71
2021/03/22 00:49:12;;;;;;;16.60;5.15;;;;;;;4.62;36.99;101406.41;4967549;28;96785;-72
2021/03/22 00:51:39;;;;;;;17.83;5.75;;;;;;;4.58;36.98;101399.13;4969092;28;96746;-72
2021/03/22 00:54:07;;;;;;;15.13;5.22;;;;;;;4.56;37.12;101406.97;4988052;28;96770;-72
2021/03/22 00:56:34;;;;;;;11.50;5.00;;;;;;;4.54;37.29;101400.69;4968242;28;97961;-72
2021/03/22 00:59:02;;;;;;;24.33;7.43;;;;;;;4.59;37.41;101398.34;4998613;28;99601;-72
2021/03/22 01:01:28;;;;;;;14.65;5.43;;;;;;;4.58;37.34;101404.41;4987644;28;97263;-72
2021/03/22 01:03:56;;;;;;;15.90;5.30;;;;;;;4.59;37.33;101401.84;4972951;28;97022;-72
2021/03/22 01:06:23;;;;;;;13.73;5.18;;;;;;;4.54;37.40;101402.41;4974908;28;99227;-72
2021/03/22 01:08:50;;;;;;;17.30;5.88;;;;;;;4.54;37.25;101398.06;5008913;27;97774;-72
2021/03/22 01:11:20;;;;;;;17.13;5.20;;;;;;;4.54;37.36;101398.06;4972901;28;97551;-73
2021/03/22 01:13:49;;;;;;;8.80;4.55;;;;;;;4.57;37.21;101392.06;4973931;28;96863;-73
2021/03/22 01:16:18;;;;;;;15.35;4.90;;;;;;;4.54;37.35;101386.59;4953494;28;100041;-72
2021/03/22 01:18:49;;;;;;;15.75;4.88;;;;;;;4.51;37.31;101392.63;5006482;28;97764;-73
2021/03/22 01:21:19;;;;;;;15.63;5.32;;;;;;;4.43;37.41;101388.66;4972638;28;97239;-72
2021/03/22 01:23:46;;;;;;;11.60;4.82;;;;;;;4.40;37.48;101384.94;4973043;28;96767;-72
2021/03/22 01:26:16;;;;;;;11.18;5.22;;;;;;;4.45;37.39;101386.09;4971435;28;97766;-72
2021/03/22 01:29:07;;;;;;;15.18;5.43;;;;;;;4.27;37.83;101390.34;5005209;27;97318;-71
2021/03/22 01:31:34;;;;;;;16.60;5.38;;;;;;;4.15;37.89;101391.47;4969539;28;96916;-72
2021/03/22 01:34:02;;;;;;;21.45;6.95;;;;;;;4.25;38.10;101392.91;4950243;28;96874;-72
2021/03/22 01:36:47;;;;;;;15.45;6.10;;;;;;;4.15;38.11;101388.84;4976122;28;97656;-71
2021/03/22 01:39:17;;;;;;;19.27;5.57;;;;;;;4.20;38.01;101383.84;4973402;28;99771;-72
2021/03/22 01:41:54;;;;;;;15.52;4.95;;;;;;;4.20;38.91;101384.78;4990018;28;96817;-71
2021/03/22 01:44:25;;;;;;;13.30;5.13;;;;;;;4.23;37.77;101369.13;4975588;28;96802;-71
2021/03/22 01:46:54;;;;;;;17.30;5.15;;;;;;;4.27;37.90;101379.81;4973822;28;98037;-72
2021/03/22 01:49:24;;;;;;;13.40;5.07;;;;;;;4.24;37.80;101378.81;4976521;28;97548;-71
2021/03/22 01:51:53;;;;;;;15.57;5.78;;;;;;;4.20;37.73;101373.31;5005838;28;97718;-72
2021/03/22 01:54:21;;;;;;;17.23;5.20;;;;;;;4.18;37.80;101377.59;4973400;28;96818;-73
2021/03/22 01:56:50;;;;;;;13.38;5.70;;;;;;;4.16;37.99;101381.88;4969764;28;98517;-71
2021/03/22 01:59:21;;;;;;;14.90;4.82;;;;;;;4.20;37.79;101381.22;4971327;28;98501;-71
2021/03/22 02:01:52;;;;;;;13.50;5.25;;;;;;;4.12;38.89;101390.41;4997637;28;96866;-72
2021/03/22 02:04:20;;;;;;;14.45;4.80;;;;;;;4.12;37.96;101386.06;4974586;28;96718;-72
2021/03/22 02:06:49;;;;;;;14.65;5.05;;;;;;;4.16;37.53;101382.78;4973545;28;97831;-72
2021/03/22 02:09:16;;;;;;;13.27;4.80;;;;;;;4.11;38.12;101381.63;5002871;28;99766;-71
2021/03/22 02:11:43;;;;;;;14.73;5.05;;;;;;;4.04;38.11;101374.16;4973004;28;96818;-71
2021/03/22 02:14:11;;;;;;;16.48;5.25;;;;;;;4.07;37.60;101379.63;5006139;28;97088;-72
2021/03/22 02:16:56;;;;;;;10.75;5.82;;;;;;;4.10;38.44;101382.41;4974325;28;97616;-71
2021/03/22 02:19:48;;;;;;;8.52;5.53;;;;;;;4.14;38.36;101370.31;4972995;28;98691;-72
2021/03/22 02:22:36;;;;;;;13.10;4.97;;;;;;;4.11;38.55;101373.72;4989473;28;96775;-70
2021/03/22 02:25:22;;;;;;;13.82;5.13;;;;;;;4.08;38.82;101364.72;4970272;28;96852;-71
2021/03/22 02:28:34;;;;;;;17.15;5.00;;;;;;;4.09;39.14;101362.19;4969588;28;99285;-72
2021/03/22 02:31:18;;;;;;;14.35;5.40;;;;;;;4.11;38.69;101365.81;4959598;28;96931;-71
2021/03/22 02:34:08;;;;;;;13.35;4.82;;;;;;;4.10;38.02;101365.69;4985346;28;97082;-73
2021/03/22 02:36:45;;;;;;;21.48;5.65;;;;;;;4.06;38.29;101371.66;4955069;28;96965;-71
2021/03/22 02:39:12;;;;;;;19.00;5.35;;;;;;;4.06;38.06;101376.91;4988793;28;97700;-72
2021/03/22 02:41:41;;;;;;;15.10;5.45;;;;;;;3.93;38.03;101369.13;4985688;28;98018;-72
2021/03/22 02:44:18;;;;;;;14.77;5.30;;;;;;;3.97;38.67;101385.19;4986105;28;98223;-72
2021/03/22 02:46:53;;;;;;;14.27;5.28;;;;;;;3.95;38.65;101378.03;5005524;28;96876;-72
2021/03/22 02:49:21;;;;;;;12.48;5.95;;;;;;;3.97;37.90;101379.91;4973928;28;98799;-72
2021/03/22 02:51:58;;;;;;;13.27;5.47;;;;;;;3.85;39.66;101378.31;4972756;28;98438;-72
2021/03/22 02:54:32;;;;;;;16.02;5.28;;;;;;;3.84;39.16;101398.44;5002246;28;96948;-72
2021/03/22 02:57:03;;;;;;;10.43;5.07;;;;;;;3.82;38.75;101389.59;4977639;28;97118;-72
2021/03/22 02:59:33;;;;;;;18.00;5.18;;;;;;;3.83;39.00;101394.00;4969346;28;97812;-73
2021/03/22 03:02:02;;;;;;;12.70;5.40;;;;;;;3.77;38.55;101388.38;4967451;28;99123;-73
2021/03/22 03:04:34;;;;;;;11.43;5.18;;;;;;;3.80;38.56;101396.47;4974434;28;96811;-72
2021/03/22 03:07:05;;;;;;;15.32;5.20;;;;;;;3.85;38.43;101404.63;4966305;28;96927;-71
2021/03/22 03:09:34;;;;;;;21.38;5.88;;;;;;;3.91;37.90;101411.19;4954486;28;98476;-71
2021/03/22 03:12:14;;;;;;;12.13;5.10;;;;;;;3.91;38.06;101411.19;4987891;28;98808;-72
2021/03/22 03:14:42;;;;;;;16.67;6.28;;;;;;;3.93;38.06;101404.25;4968058;28;96845;-72
2021/03/22 03:17:09;;;;;;;12.73;5.32;;;;;;;3.98;38.02;101397.53;4968117;28;96911;-72
2021/03/22 03:19:37;;;;;;;9.80;5.25;;;;;;;3.99;38.10;101390.53;4968676;28;100291;-70
2021/03/22 03:22:05;;;;;;;20.73;5.50;;;;;;;3.99;38.09;101401.06;4970706;28;99022;-70
2021/03/22 03:24:32;;;;;;;14.23;5.38;;;;;;;4.02;37.96;101399.50;4970151;28;97405;-72
2021/03/22 03:26:58;;;;;;;20.88;5.80;;;;;;;3.99;38.20;101401.06;4973035;28;97059;-72
2021/03/22 03:29:25;;;;;;;15.32;5.20;;;;;;;3.97;38.24;101395.72;4965094;28;98068;-72
2021/03/22 03:31:52;;;;;;;15.40;4.82;;;;;;;3.91;38.43;101403.28;5003789;28;98547;-70
2021/03/22 03:34:19;;;;;;;19.05;5.68;;;;;;;3.92;38.53;101394.53;4952832;28;96898;-72
2021/03/22 03:36:47;;;;;;;15.35;5.32;;;;;;;3.82;39.01;101397.47;4974759;28;97409;-72
2021/03/22 03:39:14;;;;;;;18.33;5.93;;;;;;;3.83;38.54;101399.28;4967178;28;96836;-72
2021/03/22 03:41:42;;;;;;;10.48;4.82;;;;;;;3.80;38.39;101403.47;5006182;28;97622;-70
2021/03/22 03:44:12;;;;;;;9.77;4.72;;;;;;;3.79;38.33;101397.28;4973548;28;97280;-72
2021/03/22 03:46:39;;;;;;;15.70;5.70;;;;;;;3.84;38.42;101405.47;4972541;28;96905;-71
2021/03/22 03:49:07;;;;;;;10.93;5.18;;;;;;;3.92;38.27;101407.72;4988401;28;98770;-71
2021/03/22 03:51:35;;;;;;;22.80;5.00;;;;;;;3.92;38.47;101406.78;4954019;28;98883;-72
2021/03/22 03:54:04;;;;;;;21.15;6.57;;;;;;;3.88;38.35;101399.53;4974158;28;96644;-71
2021/03/22 03:56:34;;;;;;;15.48;5.20;;;;;;;3.89;38.49;101401.38;4973848;28;97200;-72
2021/03/22 03:59:01;;;;;;;20.23;5.25;;;;;;;3.82;38.22;101402.75;5003715;28;99937;-71
2021/03/22 04:01:28;;;;;;;10.00;5.15;;;;;;;3.82;38.25;101404.47;5003556;28;99076;-72
2021/03/22 04:03:55;;;;;;;18.27;5.35;;;;;;;3.86;38.11;101409.09;5004418;27;97193;-72
2021/03/22 04:06:23;;;;;;;11.55;4.78;;;;;;;3.89;38.27;101417.16;4972812;28;96856;-72
2021/03/22 04:08:52;;;;;;;11.25;4.72;;;;;;;3.85;38.22;101409.88;4983540;28;100772;-71
2021/03/22 04:11:23;;;;;;;17.27;4.95;;;;;;;3.78;38.86;101407.72;4970936;28;98714;-71
2021/03/22 04:13:50;;;;;;;13.15;5.47;;;;;;;3.78;38.47;101410.34;4969481;28;96998;-71
2021/03/22 04:16:17;;;;;;;19.52;5.30;;;;;;;3.74;38.86;101421.53;4968638;28;96882;-70
2021/03/22 04:18:45;;;;;;;13.55;5.63;;;;;;;3.71;38.62;101422.28;4951626;28;98703;-73
2021/03/22 04:21:15;;;;;;;18.38;5.38;;;;;;;3.68;38.45;101424.69;4975532;28;97400;-72
2021/03/22 04:23:43;;;;;;;13.38;5.95;;;;;;;3.71;38.45;101432.78;4969958;28;97530;-72
2021/03/22 04:26:10;;;;;;;10.38;5.07;;;;;;;3.76;38.65;101435.69;4971454;28;96750;-71
2021/03/22 04:28:38;;;;;;;14.05;5.03;;;;;;;3.80;38.37;101437.69;4966704;28;97613;-71
2021/03/22 04:31:06;;;;;;;16.80;5.85;;;;;;;3.77;38.53;101438.41;4980733;28;97930;-72
2021/03/22 04:33:34;;;;;;;13.07;5.63;;;;;;;3.82;38.44;101439.59;4972070;28;96765;-72
2021/03/22 04:36:03;;;;;;;13.70;4.95;;;;;;;3.86;38.32;101438.06;4959478;28;96839;-72
2021/03/22 04:38:30;;;;;;;15.27;5.85;;;;;;;3.86;38.44;101438.94;5005153;27;98778;-72
2021/03/22 04:40:57;;;;;;;19.52;5.75;;;;;;;3.96;38.37;101441.31;4974766;28;97728;-73
2021/03/22 04:43:24;;;;;;;12.63;5.20;;;;;;;3.96;37.98;101441.31;4974087;28;96802;-72
2021/03/22 04:45:52;;;;;;;10.55;5.07;;;;;;;3.93;37.94;101441.09;4976031;28;96879;-73
2021/03/22 04:48:19;;;;;;;13.65;5.03;;;;;;;3.90;38.11;101443.56;4970562;28;99024;-72
2021/03/22 04:50:46;;;;;;;14.10;6.53;;;;;;;3.98;38.35;101439.66;4975250;28;98415;-72
2021/03/22 04:53:13;;;;;;;14.70;5.15;;;;;;;4.04;37.80;101447.91;5008502;28;98103;-72
2021/03/22 04:55:40;;;;;;;12.23;5.53;;;;;;;3.98;38.18;101444.03;5006038;28;96839;-73
2021/03/22 04:58:07;;;;;;;11.43;5.28;;;;;;;3.88;38.71;101447.84;4975259;28;99425;-72
2021/03/22 05:00:39;;;;;;;17.60;5.60;;;;;;;3.91;38.35;101448.03;4970668;28;100679;-72
2021/03/22 05:03:10;;;;;;;14.45;4.95;;;;;;;3.90;38.34;101453.19;4966058;28;97375;-72
2021/03/22 05:05:37;;;;;;;13.38;4.90;;;;;;;3.82;38.90;101460.66;4972712;28;96812;-72
2021/03/22 05:08:06;;;;;;;11.15;5.47;;;;;;;3.84;38.25;101450.22;4971962;28;97302;-72
2021/03/22 05:10:34;;;;;;;13.52;4.95;;;;;;;3.78;38.66;101450.75;4974768;28;98145;-72
2021/03/22 05:13:02;;;;;;;14.98;5.13;;;;;;;3.71;39.09;101459.13;5004711;27;97358;-72
2021/03/22 05:15:29;;;;;;;20.48;6.22;;;;;;;3.72;38.78;101458.28;4978448;28;97221;-72
2021/03/22 05:17:56;;;;;;;15.70;5.47;;;;;;;3.67;38.59;101457.13;5005312;27;96992;-73
2021/03/22 05:20:27;;;;;;;19.67;5.97;;;;;;;3.68;38.46;101453.66;4958819;28;100813;-73
2021/03/22 05:22:54;;;;;;;17.92;7.00;;;;;;;3.72;38.97;101465.25;4967217;28;97226;-72
2021/03/22 05:25:21;;;;;;;14.23;5.45;;;;;;;3.70;38.41;101466.91;4975318;28;96811;-73
2021/03/22 05:28:07;;;;;;;10.68;6.03;;;;;;;3.68;38.44;101458.91;4973840;28;98923;-73
2021/03/22 05:30:35;;;;;;;18.70;6.53;;;;;;;3.79;38.53;101459.53;4969464;28;96887;-73
2021/03/22 05:33:04;;;;;;;15.10;6.43;;;;;;;3.85;38.22;101471.34;4973814;28;96857;-72
2021/03/22 05:35:32;;;;;;;17.38;6.20;;;;;;;3.83;38.24;101486.16;5003157;28;96901;-73
2021/03/22 05:38:00;;;;;;;14.35;6.75;;;;;;;3.78;38.71;101474.44;4969432;28;98827;-73
2021/03/22 05:40:32;;;;;;;20.80;6.82;;;;;;;3.69;39.23;101478.25;4953632;28;100670;-73
2021/03/22 05:43:05;;;;;;;16.65;6.55;;;;;;;3.69;39.11;101487.06;4971759;28;96759;-73
2021/03/22 05:45:51;;;;;;;18.88;6.20;;;;;;;3.72;39.30;101487.25;4982118;28;96879;-73
2021/03/22 05:48:42;;;;;;;19.10;7.53;;;;;;;3.76;38.84;101494.50;4971560;28;97298;-72
2021/03/22 05:51:29;;;;;;;17.08;7.00;;;;;;;3.81;38.88;101486.88;4971635;28;98808;-73
2021/03/22 05:54:01;;;;;;;16.83;6.80;;;;;;;3.88;38.46;101489.97;4955661;28;97407;-73
2021/03/22 05:56:33;;;;;;;20.40;7.22;;;;;;;3.91;38.33;101494.50;4961691;28;96960;-73
2021/03/22 05:59:12;;;;;;;17.55;7.20;;;;;;;3.97;38.64;101498.41;5001584;28;99320;-72
2021/03/22 06:01:43;;;;;;;15.10;7.20;;;;;;;3.93;38.30;101499.03;4971428;28;99008;-72
2021/03/22 06:04:35;;;;;;;15.63;7.18;;;;;;;4.02;38.56;101504.84;4967788;28;97124;-72
2021/03/22 06:07:05;;;;;;;18.65;6.65;;;;;;;3.88;38.80;101505.75;4988106;28;97247;-73
2021/03/22 06:09:35;;;;;;;21.50;7.15;;;;;;;3.72;38.89;101508.28;5001915;28;97166;-75
2021/03/22 06:12:09;;;;;;;16.00;7.50;;;;;;;3.76;38.87;101512.00;4973349;28;99103;-74
2021/03/22 06:14:42;;;;;;;18.45;6.68;;;;;;;3.74;39.04;101516.28;4968562;28;97302;-73
2021/03/22 06:17:15;;;;;;;17.08;7.38;;;;;;;3.77;38.97;101516.47;4971797;28;96877;-75
2021/03/22 06:20:01;;;;;;;20.85;8.07;;;;;;;3.72;39.61;101517.91;4964690;28;98625;-73
2021/03/22 06:22:31;;;;;;;13.25;8.13;;;;;;;3.73;38.95;101523.25;4973068;28;96930;-72
2021/03/22 06:24:59;;;;;;;16.92;8.88;;;;;;;3.74;39.28;101517.19;4970730;28;97356;-74
2021/03/22 06:27:26;;;;;;;17.10;8.15;;;;;;;3.79;38.67;101525.34;4966460;28;96915;-72
2021/03/22 06:29:54;;;;;;;15.38;7.82;;;;;;;3.78;39.21;101531.44;4970364;28;97136;-75
2021/03/22 06:32:22;;;;;;;12.75;7.43;;;;;;;3.73;39.16;101540.78;4968956;28;98437;-74
2021/03/22 06:34:53;;;;;;;18.55;7.22;;;;;;;3.69;39.20;101536.16;4952804;28;97867;-74
2021/03/22 06:37:23;;;;;;;17.98;8.65;;;;;;;3.73;39.38;101535.53;4970863;28;96881;-73
2021/03/22 06:39:57;;;;;;;17.10;8.63;;;;;;;3.73;39.58;101541.69;4987680;28;99945;-74
2021/03/22 06:42:26;;;;;;;16.77;7.50;;;;;;;3.76;39.38;101541.88;5004356;28;100014;-75
2021/03/22 06:44:54;;;;;;;11.70;7.63;;;;;;;3.80;39.12;101549.16;4969328;28;96845;-72
2021/03/22 06:47:27;;;;;;;18.05;7.53;;;;;;;3.77;39.10;101546.31;5002670;27;97278;-74
2021/03/22 06:50:12;;;;;;;17.65;8.50;;;;;;;3.85;39.89;101541.53;4968421;28;98668;-72
2021/03/22 06:52:41;;;;;;;18.23;7.63;;;;;;;3.86;39.17;101549.50;4970377;28;97816;-73
2021/03/22 06:55:29;;;;;;;17.58;7.13;;;;;;;3.82;40.62;101542.25;4968492;28;96575;-74
2021/03/22 06:57:57;;;;;;;13.60;7.80;;;;;;;3.94;38.93;101548.25;4968170;28;96918;-74
2021/03/22 07:00:25;;;;;;;15.52;8.00;;;;;;;4.07;38.33;101553.44;4968720;28;98968;-74
2021/03/22 07:02:54;;;;;;;20.52;8.10;;;;;;;4.14;38.53;101544.16;4969177;28;96859;-72
2021/03/22 07:05:40;;;;;;;17.70;8.18;;;;;;;4.08;38.64;101542.06;4964367;28;99035;-73
2021/03/22 07:08:09;;;;;;;22.67;7.72;;;;;;;4.14;38.64;101538.91;4970035;28;97731;-72
2021/03/22 07:10:39;;;;;;;17.08;7.78;;;;;;;4.21;38.41;101544.63;4968644;28;99751;-72
2021/03/22 07:13:17;;;;;;;20.15;8.07;;;;;;;4.30;38.56;101548.63;4967238;28;97730;-74
2021/03/22 07:15:45;;;;;;;18.55;7.68;;;;;;;4.43;38.27;101556.38;4993578;28;97226;-73
2021/03/22 07:18:15;;;;;;;18.80;7.90;;;;;;;4.35;38.94;101560.31;4957218;28;97375;-73
2021/03/22 07:21:10;;;;;;;16.52;8.27;;;;;;;4.30;38.57;101559.16;4954947;28;97213;-74
2021/03/22 07:23:46;;;;;;;21.20;9.02;;;;;;;4.37;38.58;101566.59;4949058;28;97780;-72
2021/03/22 07:26:38;;;;;;;17.02;8.20;;;;;;;4.51;38.14;101561.31;4994144;28;97295;-73
2021/03/22 07:29:22;;;;;;;19.92;8.48;;;;;;;4.55;38.13;101572.94;4962201;28;96937;-71
2021/03/22 07:32:18;;;;;;;22.67;8.25;;;;;;;4.62;38.25;101580.38;4958109;28;98785;-71
2021/03/22 07:34:54;;;;;;;17.67;7.95;;;;;;;4.67;37.95;101585.09;4960812;28;98475;-71
2021/03/22 07:37:31;;;;;;;14.73;8.00;;;;;;;4.53;38.36;101590.38;4956047;28;97274;-71
2021/03/22 07:39:59;;;;;;;13.10;7.25;;;;;;;4.47;38.24;101597.91;4983947;27;97017;-71
2021/03/22 07:42:38;;;;;;;13.98;7.82;;;;;;;4.49;38.47;101597.19;4949757;28;97885;-72
2021/03/22 07:45:28;;;;;;;19.30;8.10;;;;;;;4.46;38.89;101598.75;4952737;28;98831;-71
2021/03/22 07:48:04;;;;;;;16.10;6.90;;;;;;;4.48;38.42;101597.13;4956889;28;97431;-71
2021/03/22 07:50:35;;;;;;;20.02;8.23;;;;;;;4.57;38.30;101590.63;4948063;28;97424;-71
2021/03/22 07:53:08;;;;;;;11.35;6.53;;;;;;;4.56;38.48;101588.81;4951815;28;100154;-71
2021/03/22 07:55:41;;;;;;;18.92;8.55;;;;;;;4.57;38.24;101585.34;4992489;28;98731;-74
2021/03/22 07:58:17;;;;;;;11.40;7.38;;;;;;;4.69;38.63;101582.53;4946652;28;97263;-73
2021/03/22 08:00:54;;;;;;;19.25;7.75;;;;;;;4.76;38.14;101590.88;4967013;28;98268;-73
2021/03/22 08:03:24;;;;;;;27.95;8.63;;;;;;;4.80;38.04;101598.16;4963055;28;97217;-75
2021/03/22 08:06:05;;;;;;;20.98;8.77;;;;;;;4.77;38.65;101597.97;4960853;28;97206;-73
2021/03/22 08:08:40;;;;;;;16.63;7.30;;;;;;;4.63;38.52;101595.34;4962255;28;96895;-75
2021/03/22 08:11:09;;;;;;;15.43;7.50;;;;;;;4.63;38.27;101597.97;4968397;28;96832;-74
2021/03/22 08:13:43;;;;;;;21.55;8.30;;;;;;;4.61;39.01;101590.00;4951859;28;97849;-74
2021/03/22 08:16:46;;;;;;;16.73;7.88;;;;;;;4.61;39.13;101600.53;4970777;28;97424;-73
2021/03/22 08:19:18;;;;;;;18.35;8.55;;;;;;;4.67;38.42;101590.34;4951012;28;97340;-76
2021/03/22 08:21:49;;;;;;;21.90;8.05;;;;;;;4.62;38.75;101598.81;4965326;28;96691;-74
2021/03/22 08:24:21;;;;;;;17.83;8.15;;;;;;;4.63;38.67;101613.78;4964573;28;97780;-73
2021/03/22 08:27:12;;;;;;;18.73;9.05;;;;;;;4.59;39.23;101611.84;4966119;28;96735;-73
2021/03/22 08:29:45;;;;;;;22.70;7.68;;;;;;;4.55;39.50;101599.28;4953088;28;96968;-73
2021/03/22 08:32:27;;;;;;;15.13;7.47;;;;;;;4.65;38.76;101604.25;4963750;28;97280;-74
2021/03/22 08:34:58;;;;;;;12.93;7.85;;;;;;;4.65;38.70;101613.09;4960790;28;97733;-74
2021/03/22 08:37:29;;;;;;;13.68;8.05;;;;;;;4.70;38.45;101608.09;4975802;28;96951;-74
2021/03/22 08:39:59;;;;;;;17.00;7.35;;;;;;;4.75;38.46;101611.91;4958223;28;97503;-74
2021/03/22 08:42:28;;;;;;;23.98;7.43;;;;;;;4.73;38.49;101613.53;4963273;28;97344;-73
2021/03/22 08:45:01;;;;;;;21.35;9.07;;;;;;;4.85;38.32;101607.22;4966040;28;99567;-74
2021/03/22 08:47:37;;;;;;;15.10;7.05;;;;;;;4.83;39.02;101618.50;4992421;28;98149;-73
2021/03/22 08:50:09;;;;;;;15.60;8.25;;;;;;;4.91;38.24;101622.50;4962352;28;97256;-71
2021/03/22 08:52:38;;;;;;;14.00;7.70;;;;;;;5.00;38.13;101623.00;4967674;28;97328;-71
2021/03/22 08:55:09;;;;;;;16.08;8.88;;;;;;;5.08;37.93;101621.75;4949138;28;98407;-75
2021/03/22 08:57:45;;;;;;;19.58;8.93;;;;;;;5.08;38.04;101632.31;4966775;28;97451;-71
2021/03/22 09:00:25;;;;;;;12.35;7.55;;;;;;;5.13;38.18;101636.13;4967345;28;97003;-72
2021/03/22 09:02:55;;;;;;;15.18;8.07;;;;;;;5.23;38.17;101630.50;4962451;28;97247;-72
2021/03/22 09:05:26;;;;;;;21.25;8.43;;;;;;;5.32;37.98;101631.03;5004338;28;98282;-72
2021/03/22 09:08:14;;;;;;;13.88;8.88;;;;;;;5.34;38.23;101629.38;4965309;28;99762;-71
2021/03/22 09:10:42;;;;;;;21.73;8.30;;;;;;;5.31;37.79;101631.88;4969221;28;96931;-71
2021/03/22 09:13:23;;;;;;;14.13;7.93;;;;;;;5.51;37.81;101641.78;4952518;28;97350;-71
2021/03/22 09:16:35;;;;;;;20.85;7.72;;;;;;;5.56;38.17;101631.47;4961703;28;97464;-71
2021/03/22 09:19:24;;;;;;;11.77;7.60;;;;;;;5.61;37.82;101628.25;4997667;27;97871;-73
2021/03/22 09:22:27;;;;;;;11.57;6.93;;;;;;;5.69;37.68;101641.88;4967949;28;96696;-72
2021/03/22 09:24:54;;;;;;;17.52;8.77;;;;;;;5.74;37.52;101629.84;4970396;28;96872;-73
2021/03/22 09:27:32;;;;;;;18.65;8.05;;;;;;;5.77;37.56;101630.00;4966648;28;96984;-76
2021/03/22 09:30:32;;;;;;;16.55;7.80;;;;;;;5.86;37.35;101634.06;4968052;28;100094;-74
2021/03/22 09:33:01;;;;;;;19.50;7.53;;;;;;;5.88;37.05;101632.41;4960004;28;96964;-73
2021/03/22 09:36:12;;;;;;;19.13;7.68;;;;;;;5.92;37.08;101633.47;4974213;28;97644;-76
2021/03/22 09:38:43;;;;;;;13.80;7.70;;;;;;;6.04;37.02;101631.47;5005528;27;97271;-73
2021/03/22 09:41:10;;;;;;;17.10;8.23;;;;;;;6.10;37.04;101637.97;4974763;28;96910;-77
2021/03/22 09:43:39;;;;;;;19.55;8.10;;;;;;;6.18;36.94;101641.94;4970436;28;97504;-75
2021/03/22 09:46:28;;;;;;;11.98;7.18;;;;;;;6.26;36.41;101639.72;4973777;28;96994;-75
2021/03/22 09:49:20;;;;;;;17.88;7.97;;;;;;;6.21;36.09;101631.53;4963984;28;96933;-76
2021/03/22 09:51:50;;;;;;;17.20;8.00;;;;;;;6.35;36.66;101627.00;4989514;28;98382;-72
2021/03/22 09:54:37;;;;;;;13.88;7.75;;;;;;;6.42;36.38;101631.75;4975192;28;96841;-71
2021/03/22 09:57:21;;;;;;;20.88;8.23;;;;;;;6.46;36.83;101636.38;5009302;27;96843;-75
2021/03/22 10:00:07;;;;;;;18.83;7.57;;;;;;;6.40;35.55;101638.72;4986463;28;98967;-72
2021/03/22 10:02:42;;;;;;;19.20;7.93;;;;;;;6.57;36.27;101637.84;4988539;28;99270;-72
2021/03/22 10:05:17;;;;;;;19.52;7.68;;;;;;;6.64;36.35;101639.97;4988883;28;96704;-72
2021/03/22 10:07:51;;;;;;;15.18;7.32;;;;;;;6.67;36.03;101639.22;4974863;28;97197;-73
2021/03/22 10:10:23;;;;;;;13.48;6.57;;;;;;;6.70;35.71;101636.72;4998050;28;98651;-75
2021/03/22 10:12:53;;;;;;;13.05;6.47;;;;;;;6.68;36.11;101628.72;5004433;28;98323;-73
2021/03/22 10:15:24;;;;;;;15.00;7.45;;;;;;;6.73;36.53;101632.50;4950620;28;97031;-73
2021/03/22 10:18:02;;;;;;;15.35;7.07;;;;;;;6.80;36.09;101629.31;4987752;28;97168;-73
2021/03/22 10:20:36;;;;;;;22.95;7.45;;;;;;;6.84;35.81;101623.34;4956679;28;98402;-73
2021/03/22 10:23:15;;;;;;;11.65;6.15;;;;;;;6.88;36.03;101630.63;5002686;28;97647;-76
2021/03/22 10:25:44;;;;;;;19.08;6.93;;;;;;;6.86;36.37;101641.94;4987984;28;96866;-74
2021/03/22 10:28:18;;;;;;;14.07;7.05;;;;;;;6.86;35.95;101636.66;5006553;28;96721;-73
2021/03/22 10:30:54;;;;;;;17.33;7.25;;;;;;;6.94;35.74;101630.88;4956019;28;98594;-73
2021/03/22 10:33:46;;;;;;;11.50;6.63;;;;;;;7.05;35.83;101632.31;4972155;28;97176;-73
2021/03/22 10:36:23;;;;;;;13.00;7.55;;;;;;;7.17;35.43;101632.03;4970681;28;96966;-76
2021/03/22 10:38:51;;;;;;;15.55;6.15;;;;;;;7.19;35.67;101635.66;4973974;28;97098;-75
2021/03/22 10:41:26;;;;;;;17.95;6.95;;;;;;;7.29;34.85;101637.00;4971259;28;97061;-75
2021/03/22 10:43:56;;;;;;;13.52;6.38;;;;;;;7.35;35.43;101637.28;4988038;28;98412;-75
2021/03/22 10:46:26;;;;;;;15.88;7.32;;;;;;;7.42;35.18;101652.69;4963224;28;97109;-75
2021/03/22 10:49:03;;;;;;;12.48;6.32;;;;;;;7.40;34.71;101644.59;4966050;28;96985;-76
2021/03/22 10:51:40;;;;;;;12.75;6.03;;;;;;;7.44;34.94;101630.72;5003530;28;100817;-74
2021/03/22 10:54:11;;;;;;;24.80;11.68;;;;;;;7.55;35.15;101634.78;4995117;28;97386;-75
2021/03/22 10:56:54;;;;;;;26.92;12.13;;;;;;;7.63;34.70;101637.78;4952584;28;97468;-75
2021/03/22 10:59:30;;;;;;;17.55;8.20;;;;;;;7.80;34.41;101632.41;4968962;28;96903;-75
2021/03/22 11:02:00;;;;;;;18.45;7.28;;;;;;;7.95;34.55;101638.44;4987215;28;99958;-75
2021/03/22 11:04:31;;;;;;;17.67;6.60;;;;;;;8.05;34.39;101632.72;4999531;27;98590;-76
2021/03/22 11:07:00;;;;;;;12.35;7.10;;;;;;;8.21;34.17;101631.63;4964613;28;96994;-75
2021/03/22 11:09:32;;;;;;;18.42;6.75;;;;;;;8.28;33.92;101640.78;4971659;28;96956;-74
2021/03/22 11:12:04;;;;;;;17.77;8.00;;;;;;;8.36;33.85;101634.06;4969617;28;97337;-75
2021/03/22 11:14:33;;;;;;;9.05;6.20;;;;;;;8.39;33.65;101629.78;4971203;28;97531;-74
2021/03/22 11:17:03;;;;;;;18.20;8.90;;;;;;;8.36;33.21;101634.06;4947898;28;97144;-74
2021/03/22 11:19:41;;;;;;;15.50;7.78;;;;;;;8.49;33.14;101639.09;4997863;28;96958;-75
2021/03/22 11:22:24;;;;;;;14.60;7.32;;;;;;;8.51;32.88;101635.69;4945613;28;98198;-75
2021/03/22 11:24:53;;;;;;;11.20;6.70;;;;;;;8.43;33.26;101633.47;5000932;28;97400;-74
2021/03/22 11:27:21;;;;;;;18.52;6.85;;;;;;;8.45;33.23;101637.09;4961838;28;97654;-75
2021/03/22 11:29:54;;;;;;;7.93;5.60;;;;;;;8.39;32.72;101631.53;4957372;28;97605;-74
2021/03/22 11:32:23;;;;;;;9.27;5.72;;;;;;;8.34;33.52;101630.44;5003209;27;97640;-74
2021/03/22 11:34:53;;;;;;;16.80;7.47;;;;;;;8.31;32.76;101632.97;4991864;28;98435;-74
2021/03/22 11:37:23;;;;;;;14.95;6.78;;;;;;;8.44;32.75;101637.97;4970458;28;97655;-74
2021/03/22 11:40:01;;;;;;;11.50;6.47;;;;;;;8.54;32.33;101643.75;5001979;28;96910;-74
2021/03/22 11:42:32;;;;;;;11.30;6.45;;;;;;;8.56;32.54;101649.13;4967520;28;98363;-74
2021/03/22 11:45:00;;;;;;;11.23;6.40;;;;;;;8.53;32.80;101643.69;4971783;28;96742;-74
2021/03/22 11:47:37;;;;;;;9.10;6.28;;;;;;;8.62;32.38;101634.38;4974587;28;96790;-75
2021/03/22 11:50:29;;;;;;;10.18;6.68;;;;;;;8.68;31.48;101639.00;4970312;28;98233;-74